Time;durP1;ratioP1;P1;durP2;ratioP2;P2;SDS_P1;SDS_P2;PMS_P1;PMS_P2;Temp;Humidity;BMP_temperature;BMP_pressure;BME280_temperature;BME280_humidity;BME280_pressure;Samples;Min_cycle;Max_cycle;Signal;HPM_P1;HPM_P2
2022/07/26 00:00:13;;;;;;;;;;;26.70;62.50;;;;;;4967627;28;20040;-96
2022/07/26 00:02:39;;;;;;;;;;;26.70;62.10;;;;;;4981182;28;20032;-96
2022/07/26 00:05:05;;;;;;;;;;;26.70;61.20;;;;;;4983789;28;19941;-96
2022/07/26 00:07:31;;;;;;;;;;;26.70;61.40;;;;;;4965021;28;19950;-96
2022/07/26 00:09:56;;;;;;;;;;;26.70;61.40;;;;;;4965107;28;19979;-96
2022/07/26 00:12:22;;;;;;;;;;;26.70;60.90;;;;;;4983023;28;19947;-96
2022/07/26 00:14:48;;;;;;;;;;;26.70;61.20;;;;;;4965780;28;20354;-96
2022/07/26 00:17:13;;;;;;;;;;;26.70;61.50;;;;;;4983279;28;20017;-96
2022/07/26 00:19:39;;;;;;;;;;;26.60;61.50;;;;;;4983895;28;19945;-96
2022/07/26 00:24:49;;;;;;;;;;;26.60;61.70;;;;;;4982265;28;19946;-96
2022/07/26 00:27:14;;;;;;;;;;;26.60;62.30;;;;;;4982875;28;19943;-96
2022/07/26 00:29:40;;;;;;;;;;;26.60;62.30;;;;;;4964304;28;20453;-96
2022/07/26 00:32:05;;;;;;;;;;;26.60;62.80;;;;;;4961482;28;19937;-96
2022/07/26 00:34:31;;;;;;;;;;;26.50;63.60;;;;;;4979126;28;20028;-96
2022/07/26 00:36:57;;;;;;;;;;;26.50;64.70;;;;;;4980559;28;20016;-96
2022/07/26 00:39:23;;;;;;;;;;;26.30;65.50;;;;;;4983041;28;19952;-96
2022/07/26 00:41:49;;;;;;;;;;;26.20;66.10;;;;;;4982640;28;19943;-96
2022/07/26 00:44:14;;;;;;;;;;;26.10;66.50;;;;;;4988267;23;20043;-96
2022/07/26 00:46:41;;;;;;;;;;;26.00;66.70;;;;;;5002045;28;19950;-96
2022/07/26 00:49:06;;;;;;;;;;;25.90;66.70;;;;;;5002189;28;19941;-96
2022/07/26 00:51:32;;;;;;;;;;;25.80;66.50;;;;;;5000795;28;19944;-96
2022/07/26 00:53:57;;;;;;;;;;;25.80;65.50;;;;;;4999911;28;20029;-96
2022/07/26 00:56:24;;;;;;;;;;;25.80;64.10;;;;;;5000936;28;20003;-96
2022/07/26 00:58:50;;;;;;;;;;;25.90;63.20;;;;;;4999227;28;19950;-96
2022/07/26 01:01:15;;;;;;;;;;;26.00;63.10;;;;;;4998081;28;19949;-96
2022/07/26 01:03:41;;;;;;;;;;;26.00;62.40;;;;;;4997438;28;19971;-96
2022/07/26 01:06:07;;;;;;;;;;;26.00;61.60;;;;;;4996893;28;20294;-96
2022/07/26 01:08:33;;;;;;;;;;;26.20;61.00;;;;;;4996784;28;19944;-96
2022/07/26 01:10:58;;;;;;;;;;;26.20;60.50;;;;;;4996685;28;19998;-96
2022/07/26 01:13:24;;;;;;;;;;;26.20;59.90;;;;;;4994641;28;19984;-96
2022/07/26 01:15:49;;;;;;;;;;;26.30;59.70;;;;;;4996520;28;20310;-96
2022/07/26 01:18:15;;;;;;;;;;;26.30;59.60;;;;;;4996385;28;20053;-96
2022/07/26 01:20:42;;;;;;;;;;;26.30;59.00;;;;;;4996705;28;19939;-96
2022/07/26 01:23:07;;;;;;;;;;;26.40;59.10;;;;;;4996011;28;19982;-96
2022/07/26 01:25:34;;;;;;;;;;;26.40;59.30;;;;;;4996261;28;20158;-96
2022/07/26 01:28:00;;;;;;;;;;;26.50;58.70;;;;;;4996224;28;19951;-96
2022/07/26 01:30:26;;;;;;;;;;;26.60;58.70;;;;;;4996068;28;19939;-96
2022/07/26 01:32:52;;;;;;;;;;;26.70;58.70;;;;;;4995997;28;20358;-96
2022/07/26 01:35:17;;;;;;;;;;;26.70;58.70;;;;;;4994319;28;20052;-96
2022/07/26 01:37:43;;;;;;;;;;;26.70;58.60;;;;;;4995980;28;19959;-96
2022/07/26 01:40:09;;;;;;;;;;;26.80;58.30;;;;;;4995870;28;19978;-96
2022/07/26 01:42:34;;;;;;;;;;;26.80;58.90;;;;;;4996440;28;20033;-96
2022/07/26 01:45:00;;;;;;;;;;;26.70;58.70;;;;;;5012862;28;20422;-96
2022/07/26 01:47:26;;;;;;;;;;;26.70;58.90;;;;;;5016576;28;19960;-96
2022/07/26 01:49:51;;;;;;;;;;;26.70;59.10;;;;;;5016386;28;20023;-96
2022/07/26 01:52:17;;;;;;;;;;;26.60;59.20;;;;;;5016069;28;20305;-96
2022/07/26 01:54:43;;;;;;;;;;;26.50;59.50;;;;;;5015809;28;19967;-96
2022/07/26 01:57:08;;;;;;;;;;;26.50;59.50;;;;;;5016038;28;19962;-96
2022/07/26 01:59:34;;;;;;;;;;;26.40;59.80;;;;;;5016830;28;19943;-96
2022/07/26 02:02:00;;;;;;;;;;;26.40;60.00;;;;;;4998665;28;19949;-96
2022/07/26 02:07:09;;;;;;;;;;;26.30;60.70;;;;;;5015612;28;19968;-96
2022/07/26 02:09:35;;;;;;;;;;;26.20;60.60;;;;;;4997791;28;20310;-96
2022/07/26 02:12:01;;;;;;;;;;;26.20;60.80;;;;;;5015610;28;20356;-96
2022/07/26 02:14:26;;;;;;;;;;;26.20;60.20;;;;;;5014872;28;19946;-96
2022/07/26 02:16:58;;;;;;;;;;;26.10;60.10;;;;;;5015199;28;19963;-96
2022/07/26 02:19:25;;;;;;;;;;;26.10;60.60;;;;;;5014963;28;19943;-96
2022/07/26 02:21:50;;;;;;;;;;;26.00;61.30;;;;;;5015060;28;19942;-96
2022/07/26 02:24:16;;;;;;;;;;;25.90;62.30;;;;;;5014170;28;19936;-96
2022/07/26 02:26:41;;;;;;;;;;;25.70;63.50;;;;;;5014644;28;19950;-96
2022/07/26 02:29:07;;;;;;;;;;;25.70;64.10;;;;;;5014623;28;20322;-96
2022/07/26 02:31:32;;;;;;;;;;;25.50;64.40;;;;;;5015009;28;20346;-96
2022/07/26 02:33:58;;;;;;;;;;;25.50;64.90;;;;;;5014758;28;19936;-96
2022/07/26 02:36:24;;;;;;;;;;;25.40;65.40;;;;;;4996646;28;19967;-96
2022/07/26 02:38:49;;;;;;;;;;;25.40;66.00;;;;;;5014650;28;20305;-96
2022/07/26 02:41:15;;;;;;;;;;;25.30;66.60;;;;;;5014650;28;20034;-96
2022/07/26 02:43:40;;;;;;;;;;;25.20;67.20;;;;;;5014574;28;20077;-96
2022/07/26 02:46:06;;;;;;;;;;;25.00;67.60;;;;;;5015107;28;19993;-96
2022/07/26 02:48:31;;;;;;;;;;;24.90;69.20;;;;;;5014751;28;19941;-96
2022/07/26 02:50:57;;;;;;;;;;;24.70;70.00;;;;;;5014928;28;19943;-96
2022/07/26 02:53:22;;;;;;;;;;;24.40;71.10;;;;;;5014728;28;19946;-96
2022/07/26 02:55:48;;;;;;;;;;;24.30;71.40;;;;;;5014762;28;19982;-96
2022/07/26 02:58:13;;;;;;;;;;;24.30;71.50;;;;;;5014080;28;20410;-96
2022/07/26 03:00:39;;;;;;;;;;;24.30;71.10;;;;;;5014373;28;19939;-96
2022/07/26 03:03:05;;;;;;;;;;;24.20;71.30;;;;;;5014110;28;20381;-96
2022/07/26 03:05:30;;;;;;;;;;;24.20;71.70;;;;;;5014311;28;19996;-96
2022/07/26 03:07:56;;;;;;;;;;;24.10;71.90;;;;;;5014020;28;20474;-96
2022/07/26 03:10:21;;;;;;;;;;;24.10;71.70;;;;;;5014365;28;19944;-96
2022/07/26 03:12:47;;;;;;;;;;;24.10;72.50;;;;;;5014332;28;19952;-96
2022/07/26 03:15:12;;;;;;;;;;;24.00;71.80;;;;;;5014304;28;19944;-96
2022/07/26 03:17:38;;;;;;;;;;;24.00;71.50;;;;;;5013843;28;20413;-96
2022/07/26 03:20:04;;;;;;;;;;;24.00;70.80;;;;;;5014225;28;19972;-96
2022/07/26 03:22:30;;;;;;;;;;;24.00;70.50;;;;;;5013906;28;19947;-96
2022/07/26 03:24:55;;;;;;;;;;;24.10;71.10;;;;;;5014561;28;20401;-96
2022/07/26 03:27:21;;;;;;;;;;;24.10;70.90;;;;;;5014527;28;19943;-96
2022/07/26 03:29:46;;;;;;;;;;;24.10;70.20;;;;;;5014826;28;19943;-96
2022/07/26 03:32:12;;;;;;;;;;;24.10;70.00;;;;;;5013949;28;19951;-96
2022/07/26 03:34:37;;;;;;;;;;;24.20;69.20;;;;;;5014337;28;20312;-96
2022/07/26 03:37:03;;;;;;;;;;;24.20;68.80;;;;;;5016400;28;20019;-96
2022/07/26 03:39:29;;;;;;;;;;;24.30;69.00;;;;;;5018760;28;19951;-96
2022/07/26 03:41:54;;;;;;;;;;;24.20;69.00;;;;;;5018569;28;19974;-96
2022/07/26 03:44:20;;;;;;;;;;;24.20;68.70;;;;;;5018407;28;20349;-96
2022/07/26 03:46:45;;;;;;;;;;;24.30;69.60;;;;;;5018703;28;19943;-96
2022/07/26 03:49:11;;;;;;;;;;;24.20;69.00;;;;;;5018862;28;19962;-96
2022/07/26 03:51:36;;;;;;;;;;;24.20;68.90;;;;;;5018903;28;19943;-96
2022/07/26 03:54:02;;;;;;;;;;;24.10;69.10;;;;;;5019175;28;19951;-96
2022/07/26 03:56:27;;;;;;;;;;;24.10;69.20;;;;;;5018594;28;19955;-96
2022/07/26 03:58:54;;;;;;;;;;;24.10;68.50;;;;;;5019506;28;20334;-96
2022/07/26 04:01:20;;;;;;;;;;;24.20;70.30;;;;;;5019249;28;19940;-96
2022/07/26 04:03:45;;;;;;;;;;;24.20;70.20;;;;;;5018829;28;20401;-96
2022/07/26 04:06:11;;;;;;;;;;;24.00;70.60;;;;;;5001066;28;19949;-96
2022/07/26 04:08:36;;;;;;;;;;;23.90;71.10;;;;;;5018587;28;20309;-96
2022/07/26 04:11:02;;;;;;;;;;;23.80;71.10;;;;;;5018518;28;20358;-96
2022/07/26 04:13:28;;;;;;;;;;;23.80;71.30;;;;;;5019590;28;19995;-96
2022/07/26 04:15:56;;;;;;;;;;;23.70;71.70;;;;;;5019623;28;19944;-96
2022/07/26 04:18:22;;;;;;;;;;;23.70;72.80;;;;;;5020885;28;19963;-96
2022/07/26 04:20:47;;;;;;;;;;;23.80;72.40;;;;;;5020724;28;19943;-96
2022/07/26 04:23:13;;;;;;;;;;;24.00;71.40;;;;;;5003434;28;20004;-96
2022/07/26 04:25:39;;;;;;;;;;;24.10;71.30;;;;;;5019939;28;19952;-96
2022/07/26 04:28:05;;;;;;;;;;;24.10;72.80;;;;;;5019956;28;19980;-96
2022/07/26 04:30:30;;;;;;;;;;;24.20;72.10;;;;;;5019418;28;19940;-96
2022/07/26 04:32:56;;;;;;;;;;;24.10;71.30;;;;;;5018558;28;19993;-96
2022/07/26 04:35:21;;;;;;;;;;;24.10;69.10;;;;;;5018434;28;20370;-96
2022/07/26 04:37:47;;;;;;;;;;;24.10;68.10;;;;;;5018761;28;19954;-97
2022/07/26 04:40:17;;;;;;;;;;;24.20;70.10;;;;;;5018213;28;19950;-96
2022/07/26 04:42:42;;;;;;;;;;;24.20;72.40;;;;;;5018788;28;19999;-96
2022/07/26 04:45:09;;;;;;;;;;;24.20;72.70;;;;;;5018046;28;20066;-96
2022/07/26 04:47:35;;;;;;;;;;;24.10;72.80;;;;;;5017651;28;19943;-96
2022/07/26 04:50:01;;;;;;;;;;;24.00;73.20;;;;;;5017693;28;19963;-96
2022/07/26 04:52:26;;;;;;;;;;;23.90;73.30;;;;;;5017124;28;20021;-96
2022/07/26 04:54:52;;;;;;;;;;;23.90;73.80;;;;;;5017470;28;19946;-96
2022/07/26 04:57:17;;;;;;;;;;;23.80;73.50;;;;;;5017518;28;19990;-96
2022/07/26 04:59:43;;;;;;;;;;;23.90;73.10;;;;;;5018077;28;19939;-96
2022/07/26 05:02:08;;;;;;;;;;;24.00;72.50;;;;;;5017129;28;19940;-96
2022/07/26 05:04:34;;;;;;;;;;;24.30;71.00;;;;;;5017940;28;19955;-96
2022/07/26 05:07:01;;;;;;;;;;;24.50;71.10;;;;;;5017191;28;20039;-96
2022/07/26 05:09:28;;;;;;;;;;;24.60;70.10;;;;;;5020822;28;19983;-96
2022/07/26 05:11:54;;;;;;;;;;;24.70;69.70;;;;;;5024401;28;19946;-96
2022/07/26 05:14:20;;;;;;;;;;;24.70;68.60;;;;;;5008683;28;19949;-96
2022/07/26 05:16:46;;;;;;;;;;;24.80;67.70;;;;;;5009899;28;19970;-96
2022/07/26 05:19:12;;;;;;;;;;;24.90;67.20;;;;;;5011188;28;19971;-96
2022/07/26 05:21:38;;;;;;;;;;;25.00;65.20;;;;;;5028124;28;19946;-96
2022/07/26 05:24:04;;;;;;;;;;;25.10;65.60;;;;;;5028876;28;19948;-96
2022/07/26 05:26:30;;;;;;;;;;;25.20;65.00;;;;;;5026245;28;19946;-96
2022/07/26 05:28:56;;;;;;;;;;;25.30;64.10;;;;;;5023401;28;19946;-96
2022/07/26 05:31:22;;;;;;;;;;;25.40;63.70;;;;;;5021823;28;19946;-96
2022/07/26 05:33:47;;;;;;;;;;;25.50;63.70;;;;;;5001404;28;19948;-96
2022/07/26 05:36:13;;;;;;;;;;;25.60;63.20;;;;;;5020290;28;19957;-96
2022/07/26 05:38:38;;;;;;;;;;;25.80;63.00;;;;;;5017816;28;19935;-96
2022/07/26 05:41:04;;;;;;;;;;;25.90;62.00;;;;;;5016098;28;20440;-96
2022/07/26 05:43:30;;;;;;;;;;;26.00;61.70;;;;;;5016310;28;19980;-96
2022/07/26 05:45:56;;;;;;;;;;;26.10;61.70;;;;;;5015720;28;20395;-96
2022/07/26 05:48:22;;;;;;;;;;;26.10;62.00;;;;;;5016106;28;20310;-96
2022/07/26 05:50:47;;;;;;;;;;;26.20;61.80;;;;;;5016603;28;19944;-96
2022/07/26 05:53:13;;;;;;;;;;;26.20;61.00;;;;;;5016568;28;19944;-96
2022/07/26 05:55:38;;;;;;;;;;;26.20;60.90;;;;;;5015953;28;19948;-96
2022/07/26 05:58:04;;;;;;;;;;;26.20;60.20;;;;;;5015948;28;20065;-96
2022/07/26 06:00:29;;;;;;;;;;;26.20;60.80;;;;;;5016355;28;19985;-96
2022/07/26 06:02:55;;;;;;;;;;;26.20;60.50;;;;;;5019109;28;19981;-96
2022/07/26 06:05:20;;;;;;;;;;;26.30;60.30;;;;;;5018352;28;19996;-96
2022/07/26 06:07:46;;;;;;;;;;;26.40;60.70;;;;;;5000593;28;20339;-96
2022/07/26 06:10:12;;;;;;;;;;;26.40;61.10;;;;;;5018799;28;20309;-96
2022/07/26 06:12:37;;;;;;;;;;;26.50;61.20;;;;;;5018644;28;20007;-96
2022/07/26 06:15:03;;;;;;;;;;;26.50;60.70;;;;;;5018819;28;20048;-96
2022/07/26 06:17:29;;;;;;;;;;;26.60;60.20;;;;;;5000580;28;19970;-96
2022/07/26 06:19:55;;;;;;;;;;;26.60;59.50;;;;;;5018864;28;19948;-96
2022/07/26 06:22:21;;;;;;;;;;;26.60;60.80;;;;;;5001053;28;19944;-96
2022/07/26 06:24:46;;;;;;;;;;;26.60;61.50;;;;;;5000629;28;19943;-96
2022/07/26 06:27:12;;;;;;;;;;;26.60;63.30;;;;;;5018885;28;19971;-96
2022/07/26 06:29:53;;;;;;;;;;;26.60;61.90;;;;;;4997929;28;20287;-96
2022/07/26 06:32:19;;;;;;;;;;;26.70;62.10;;;;;;5021405;28;19996;-96
2022/07/26 06:34:44;;;;;;;;;;;26.80;61.70;;;;;;5006532;28;19950;-96
2022/07/26 06:37:13;;;;;;;;;;;26.80;61.50;;;;;;5006722;28;19981;-96
2022/07/26 06:39:38;;;;;;;;;;;26.90;60.80;;;;;;5004708;28;19948;-96
2022/07/26 06:42:04;;;;;;;;;;;27.00;61.10;;;;;;5027945;28;19962;-96
2022/07/26 06:44:30;;;;;;;;;;;27.00;60.80;;;;;;5010420;28;20009;-96
2022/07/26 06:46:56;;;;;;;;;;;27.10;61.00;;;;;;5011171;28;20043;-96
2022/07/26 06:49:21;;;;;;;;;;;27.10;60.90;;;;;;5026372;28;19950;-96
2022/07/26 06:51:47;;;;;;;;;;;27.10;61.60;;;;;;5027991;28;19947;-96
2022/07/26 06:54:13;;;;;;;;;;;27.20;60.80;;;;;;5029330;28;20423;-96
2022/07/26 06:56:39;;;;;;;;;;;27.20;60.70;;;;;;5028828;28;19967;-96
2022/07/26 06:59:05;;;;;;;;;;;27.20;61.40;;;;;;5030216;28;19953;-96
2022/07/26 07:01:31;;;;;;;;;;;27.20;61.00;;;;;;5012139;28;20033;-96
2022/07/26 07:03:57;;;;;;;;;;;27.30;58.10;;;;;;5030600;28;19949;-96
2022/07/26 07:06:23;;;;;;;;;;;27.40;58.60;;;;;;5030623;28;19936;-96
2022/07/26 07:08:49;;;;;;;;;;;27.50;58.00;;;;;;5029884;28;19971;-96
2022/07/26 07:11:15;;;;;;;;;;;27.50;56.50;;;;;;5028697;28;20007;-96
2022/07/26 07:13:40;;;;;;;;;;;27.70;56.80;;;;;;5026503;28;19950;-96
2022/07/26 07:16:06;;;;;;;;;;;27.70;58.90;;;;;;5028653;28;19946;-96
2022/07/26 07:18:32;;;;;;;;;;;28.00;56.30;;;;;;5030018;28;20006;-96
2022/07/26 07:20:58;;;;;;;;;;;28.10;56.80;;;;;;5030719;28;19939;-96
2022/07/26 07:23:23;;;;;;;;;;;28.10;55.30;;;;;;5030355;28;20032;-96
2022/07/26 07:25:49;;;;;;;;;;;28.20;54.90;;;;;;5014354;28;19943;-96
2022/07/26 07:28:15;;;;;;;;;;;28.20;55.70;;;;;;5033328;28;19951;-96
2022/07/26 07:30:42;;;;;;;;;;;28.30;56.80;;;;;;5014453;28;19947;-96
2022/07/26 07:33:11;;;;;;;;;;;28.40;56.40;;;;;;5032155;28;19987;-96
2022/07/26 07:35:37;;;;;;;;;;;28.40;56.70;;;;;;5033330;28;20016;-96
2022/07/26 07:38:04;;;;;;;;;;;28.50;55.70;;;;;;5019099;28;19967;-96
2022/07/26 07:40:30;;;;;;;;;;;28.50;55.70;;;;;;5033672;28;19943;-96
2022/07/26 07:42:57;;;;;;;;;;;28.60;55.50;;;;;;5015695;28;19964;-96
2022/07/26 07:45:22;;;;;;;;;;;28.60;54.10;;;;;;5013580;28;20021;-96
2022/07/26 07:47:48;;;;;;;;;;;28.70;54.20;;;;;;5030501;28;19984;-96
2022/07/26 07:50:14;;;;;;;;;;;28.80;55.00;;;;;;5031527;28;19981;-96
2022/07/26 07:52:39;;;;;;;;;;;28.90;53.80;;;;;;5031736;28;19977;-96
2022/07/26 07:55:06;;;;;;;;;;;28.90;52.90;;;;;;5032967;28;20021;-96
2022/07/26 07:57:34;;;;;;;;;;;28.90;51.90;;;;;;5016324;28;19997;-96
2022/07/26 08:00:00;;;;;;;;;;;29.00;50.30;;;;;;5032577;28;19942;-96
2022/07/26 08:02:26;;;;;;;;;;;29.10;51.60;;;;;;5030081;28;19947;-96
2022/07/26 08:04:52;;;;;;;;;;;29.20;50.10;;;;;;5013805;28;20053;-96
2022/07/26 08:07:18;;;;;;;;;;;29.30;49.20;;;;;;5014986;28;19971;-96
2022/07/26 08:09:44;;;;;;;;;;;29.30;49.10;;;;;;5033097;28;19949;-96
2022/07/26 08:12:10;;;;;;;;;;;29.50;48.70;;;;;;5012862;28;19955;-96
2022/07/26 08:14:36;;;;;;;;;;;29.50;49.00;;;;;;5012194;28;19946;-96
2022/07/26 08:17:02;;;;;;;;;;;29.60;49.80;;;;;;5014389;28;19970;-96
2022/07/26 08:19:28;;;;;;;;;;;29.60;48.50;;;;;;5032093;28;19923;-96
2022/07/26 08:21:54;;;;;;;;;;;29.70;49.80;;;;;;5016963;28;19953;-96
2022/07/26 08:24:20;;;;;;;;;;;29.70;49.40;;;;;;5033664;28;19945;-96
2022/07/26 08:26:49;;;;;;;;;;;29.80;48.80;;;;;;5034176;28;19948;-96
2022/07/26 08:29:15;;;;;;;;;;;29.80;50.50;;;;;;5017635;28;20005;-96
2022/07/26 08:31:41;;;;;;;;;;;29.90;49.70;;;;;;5017735;28;19944;-96
2022/07/26 08:34:08;;;;;;;;;;;29.90;48.40;;;;;;5016712;28;19955;-96
2022/07/26 08:36:34;;;;;;;;;;;30.10;49.00;;;;;;5031787;28;20016;-96
2022/07/26 08:39:00;;;;;;;;;;;30.10;47.00;;;;;;5017036;28;19975;-96
2022/07/26 08:41:26;;;;;;;;;;;30.20;46.70;;;;;;5017192;28;19955;-96
2022/07/26 08:43:52;;;;;;;;;;;30.30;48.70;;;;;;5025616;23;19972;-96
2022/07/26 08:46:22;;;;;;;;;;;30.30;47.20;;;;;;5034431;28;19936;-96
2022/07/26 08:48:50;;;;;;;;;;;30.40;46.80;;;;;;5049899;28;19951;-96
2022/07/26 08:51:18;;;;;;;;;;;30.50;47.90;;;;;;5032391;28;19949;-96
2022/07/26 08:53:44;;;;;;;;;;;30.70;47.20;;;;;;5034107;28;19924;-96
2022/07/26 08:56:10;;;;;;;;;;;30.80;50.00;;;;;;5034794;28;19967;-96
2022/07/26 08:58:36;;;;;;;;;;;30.80;47.90;;;;;;5034319;28;20043;-97
2022/07/26 09:01:03;;;;;;;;;;;31.00;48.50;;;;;;5033657;28;19942;-96
2022/07/26 09:03:30;;;;;;;;;;;31.10;47.70;;;;;;5031698;28;19965;-96
2022/07/26 09:05:59;;;;;;;;;;;31.20;45.50;;;;;;5030910;28;19943;-96
2022/07/26 09:08:28;;;;;;;;;;;31.20;45.60;;;;;;5030286;28;19942;-96
2022/07/26 09:10:54;;;;;;;;;;;31.20;45.20;;;;;;5028628;28;20006;-96
2022/07/26 09:13:22;;;;;;;;;;;31.20;45.50;;;;;;5030876;28;20404;-96
2022/07/26 09:16:07;;;;;;;;;;;31.20;44.50;;;;;;5032024;28;19958;-96
2022/07/26 09:18:33;;;;;;;;;;;31.20;45.20;;;;;;5032302;28;19966;-96
2022/07/26 09:21:03;;;;;;;;;;;31.30;47.00;;;;;;5032143;28;19942;-96
2022/07/26 09:23:42;;;;;;;;;;;31.40;47.70;;;;;;5032998;28;19940;-96
2022/07/26 09:26:08;;;;;;;;;;;31.40;46.40;;;;;;5033457;28;19939;-96
2022/07/26 09:28:34;;;;;;;;;;;31.40;45.10;;;;;;5029440;28;20030;-96
2022/07/26 09:31:01;;;;;;;;;;;31.50;44.60;;;;;;5029708;28;19946;-96
2022/07/26 09:33:43;;;;;;;;;;;31.50;45.10;;;;;;5029912;28;19976;-96
2022/07/26 09:36:08;;;;;;;;;;;31.50;44.30;;;;;;5031195;28;19957;-96
2022/07/26 09:38:39;;;;;;;;;;;31.60;46.60;;;;;;5029911;28;19962;-96
2022/07/26 09:41:23;;;;;;;;;;;31.80;46.60;;;;;;5028917;28;19945;-96
2022/07/26 09:43:50;;;;;;;;;;;31.90;45.10;;;;;;5028103;28;20025;-96
2022/07/26 09:46:16;;;;;;;;;;;32.10;43.20;;;;;;5028175;28;19954;-96
2022/07/26 09:48:42;;;;;;;;;;;32.20;42.10;;;;;;5026759;28;19944;-96
2022/07/26 09:51:09;;;;;;;;;;;32.20;41.30;;;;;;5029136;28;19945;-96
2022/07/26 09:53:45;;;;;;;;;;;32.20;42.70;;;;;;5028923;28;19975;-96
2022/07/26 09:56:11;;;;;;;;;;;32.20;41.50;;;;;;5028765;28;19936;-96
2022/07/26 09:58:37;;;;;;;;;;;32.20;44.60;;;;;;5032431;28;19994;-96
2022/07/26 10:01:07;;;;;;;;;;;32.20;41.30;;;;;;5030703;28;19943;-96
2022/07/26 10:03:35;;;;;;;;;;;32.30;41.20;;;;;;5029450;28;19942;-96
2022/07/26 10:06:01;;;;;;;;;;;32.40;41.40;;;;;;5027988;28;19952;-96
2022/07/26 10:08:28;;;;;;;;;;;32.50;42.70;;;;;;5028866;28;19989;-96
2022/07/26 10:11:00;;;;;;;;;;;32.60;42.20;;;;;;5024942;28;19944;-96
2022/07/26 10:13:26;;;;;;;;;;;32.70;41.00;;;;;;5026201;28;19947;-96
2022/07/26 10:15:55;;;;;;;;;;;32.80;42.00;;;;;;5025855;28;19941;-96
2022/07/26 10:18:36;;;;;;;;;;;32.90;40.10;;;;;;5029437;28;19966;-96
2022/07/26 10:21:14;;;;;;;;;;;33.00;42.90;;;;;;5031268;28;19948;-96
2022/07/26 10:23:41;;;;;;;;;;;33.20;43.70;;;;;;5029677;28;19940;-96
2022/07/26 10:26:09;;;;;;;;;;;33.30;39.80;;;;;;5029630;28;20082;-96
2022/07/26 10:28:35;;;;;;;;;;;33.30;40.30;;;;;;5029655;28;19948;-96
2022/07/26 10:31:19;;;;;;;;;;;33.40;39.60;;;;;;5029859;28;19945;-96
2022/07/26 10:33:49;;;;;;;;;;;33.50;38.90;;;;;;5031385;28;19942;-96
2022/07/26 10:36:24;;;;;;;;;;;33.70;41.50;;;;;;5028737;28;19961;-96
2022/07/26 10:38:58;;;;;;;;;;;33.80;38.10;;;;;;5028489;28;19947;-96
2022/07/26 10:41:34;;;;;;;;;;;33.90;37.60;;;;;;5030793;28;19941;-96
2022/07/26 10:44:15;;;;;;;;;;;34.10;39.50;;;;;;5026436;28;20424;-96
2022/07/26 10:47:01;;;;;;;;;;;34.10;38.60;;;;;;5029437;28;19957;-96
2022/07/26 10:49:30;;;;;;;;;;;34.20;38.40;;;;;;5032084;28;19981;-96
2022/07/26 10:52:07;;;;;;;;;;;34.20;39.10;;;;;;5028953;28;19954;-96
2022/07/26 10:54:52;;;;;;;;;;;34.10;39.10;;;;;;5028349;28;19953;-96
2022/07/26 10:57:18;;;;;;;;;;;34.20;39.50;;;;;;5028545;28;20109;-96
2022/07/26 10:59:47;;;;;;;;;;;34.50;39.70;;;;;;5031157;28;19956;-96
2022/07/26 11:02:17;;;;;;;;;;;34.70;38.00;;;;;;5028831;28;19989;-96
2022/07/26 11:04:43;;;;;;;;;;;34.70;36.60;;;;;;5027029;28;19939;-96
2022/07/26 11:07:12;;;;;;;;;;;34.60;36.90;;;;;;5029084;28;19950;-96
2022/07/26 11:09:38;;;;;;;;;;;34.40;37.80;;;;;;5031560;28;20004;-96
2022/07/26 11:12:14;;;;;;;;;;;34.50;38.40;;;;;;5028127;28;19939;-96
2022/07/26 11:14:39;;;;;;;;;;;34.60;38.40;;;;;;5027812;28;19948;-96
2022/07/26 11:17:05;;;;;;;;;;;34.70;37.70;;;;;;5027908;28;19970;-96
2022/07/26 11:19:40;;;;;;;;;;;34.90;36.50;;;;;;5028868;28;19941;-96
2022/07/26 11:22:06;;;;;;;;;;;35.10;38.70;;;;;;5027301;28;19958;-96
2022/07/26 11:24:31;;;;;;;;;;;35.50;38.70;;;;;;5030124;28;19945;-96
2022/07/26 11:27:01;;;;;;;;;;;35.60;37.50;;;;;;5028893;28;19946;-96
2022/07/26 11:29:28;;;;;;;;;;;35.70;37.10;;;;;;5027859;28;19944;-96
2022/07/26 11:31:54;;;;;;;;;;;35.90;37.30;;;;;;5028204;28;19942;-96
2022/07/26 11:34:24;;;;;;;;;;;36.10;37.60;;;;;;5029621;28;20305;-96
2022/07/26 11:36:51;;;;;;;;;;;36.30;35.20;;;;;;5031531;28;19962;-96
2022/07/26 11:39:22;;;;;;;;;;;36.60;36.50;;;;;;5029704;28;19949;-96
2022/07/26 11:41:48;;;;;;;;;;;36.70;35.50;;;;;;5030901;28;19951;-96
2022/07/26 11:44:18;;;;;;;;;;;36.90;36.00;;;;;;5027760;28;19983;-96
2022/07/26 11:46:47;;;;;;;;;;;37.10;35.90;;;;;;5016099;28;19949;-96
2022/07/26 11:49:18;;;;;;;;;;;37.20;35.30;;;;;;5016587;28;20011;-97
2022/07/26 11:51:52;;;;;;;;;;;37.20;36.90;;;;;;5032342;28;19942;-96
2022/07/26 11:54:24;;;;;;;;;;;37.20;36.10;;;;;;5017052;28;19977;-96
2022/07/26 11:57:02;;;;;;;;;;;37.50;35.70;;;;;;5018255;28;19968;-96
2022/07/26 11:59:29;;;;;;;;;;;37.70;34.80;;;;;;5022591;28;19931;-96
2022/07/26 12:01:57;;;;;;;;;;;37.70;35.60;;;;;;5021253;28;19942;-96
2022/07/26 12:04:31;;;;;;;;;;;37.50;34.50;;;;;;5037912;28;19938;-96
2022/07/26 12:07:03;;;;;;;;;;;37.50;34.70;;;;;;5036267;28;19942;-96
2022/07/26 12:10:00;;;;;;;;;;;37.50;34.10;;;;;;5019412;28;19969;-96
2022/07/26 12:12:32;;;;;;;;;;;37.60;34.50;;;;;;5023497;28;20504;-96
2022/07/26 12:15:00;;;;;;;;;;;37.50;35.70;;;;;;5019818;28;19951;-96
2022/07/26 12:17:32;;;;;;;;;;;37.50;34.90;;;;;;5037060;28;20025;-96
2022/07/26 12:20:18;;;;;;;;;;;37.60;35.50;;;;;;5018756;28;19988;-96
2022/07/26 12:23:04;;;;;;;;;;;37.40;34.50;;;;;;5039022;28;19997;-96
2022/07/26 12:25:31;;;;;;;;;;;37.70;32.90;;;;;;5022462;28;19996;-96
2022/07/26 12:27:59;;;;;;;;;;;38.30;33.40;;;;;;5037672;28;19953;-96
2022/07/26 12:30:26;;;;;;;;;;;38.70;33.00;;;;;;5004186;28;19970;-96
2022/07/26 12:32:54;;;;;;;;;;;39.10;34.30;;;;;;5020949;28;19940;-96
2022/07/26 12:35:37;;;;;;;;;;;39.50;31.10;;;;;;5021962;28;19951;-96
2022/07/26 12:38:08;;;;;;;;;;;39.70;29.60;;;;;;5020248;28;19962;-96
2022/07/26 12:40:43;;;;;;;;;;;40.00;30.30;;;;;;5022483;28;19943;-96
2022/07/26 12:43:13;;;;;;;;;;;40.00;31.70;;;;;;5022736;28;19973;-96
2022/07/26 12:45:40;;;;;;;;;;;40.10;32.60;;;;;;4991841;28;19957;-96
2022/07/26 12:48:10;;;;;;;;;;;40.10;30.90;;;;;;5001136;28;19948;-96
2022/07/26 12:50:37;;;;;;;;;;;39.80;32.10;;;;;;4983633;28;19993;-96
2022/07/26 12:53:07;;;;;;;;;;;39.60;33.40;;;;;;5015812;28;19926;-96
2022/07/26 12:55:34;;;;;;;;;;;39.70;31.70;;;;;;5001327;28;19939;-96
2022/07/26 12:58:03;;;;;;;;;;;39.70;32.00;;;;;;5001727;28;19970;-96
2022/07/26 13:00:45;;;;;;;;;;;39.80;32.00;;;;;;5002216;28;19992;-96
2022/07/26 13:03:20;;;;;;;;;;;40.00;31.80;;;;;;5019953;28;19955;-96
2022/07/26 13:05:58;;;;;;;;;;;40.40;31.90;;;;;;5002493;28;19948;-96
2022/07/26 13:11:02;;;;;;;;;;;41.20;33.90;;;;;;5656769;23;19980;-97
2022/07/26 13:13:34;;;;;;;;;;;42.00;30.90;;;;;;5019818;28;19949;-97
2022/07/26 13:16:01;;;;;;;;;;;42.90;29.70;;;;;;5017369;28;20051;-96
2022/07/26 13:18:28;;;;;;;;;;;43.30;29.80;;;;;;5000517;28;19969;-96
2022/07/26 13:20:55;;;;;;;;;;;43.70;27.90;;;;;;4997700;28;20022;-96
2022/07/26 13:23:22;;;;;;;;;;;44.30;26.90;;;;;;4998267;28;19983;-96
2022/07/26 13:25:51;;;;;;;;;;;44.90;26.10;;;;;;5014410;28;20276;-96
2022/07/26 13:28:17;;;;;;;;;;;44.90;25.30;;;;;;4996742;28;20000;-96
2022/07/26 13:30:44;;;;;;;;;;;45.60;24.10;;;;;;4998710;28;19946;-96
2022/07/26 13:33:10;;;;;;;;;;;45.70;24.20;;;;;;4991815;28;19943;-96
2022/07/26 13:35:38;;;;;;;;;;;45.20;23.70;;;;;;5006276;28;19960;-96
2022/07/26 13:38:03;;;;;;;;;;;44.60;24.10;;;;;;4976207;28;20032;-96
2022/07/26 13:40:29;;;;;;;;;;;44.70;25.00;;;;;;4974056;28;20002;-96
2022/07/26 13:42:57;;;;;;;;;;;44.60;24.00;;;;;;5005091;28;19947;-96
2022/07/26 13:45:23;;;;;;;;;;;44.80;23.70;;;;;;4976143;28;20037;-96
2022/07/26 13:47:51;;;;;;;;;;;44.60;25.00;;;;;;4998067;28;19955;-96
2022/07/26 13:50:17;;;;;;;;;;;44.60;24.90;;;;;;4978430;28;19974;-96
2022/07/26 13:52:44;;;;;;;;;;;44.00;24.50;;;;;;4994143;28;19951;-96
2022/07/26 13:55:11;;;;;;;;;;;43.40;25.10;;;;;;5013781;28;20002;-96
2022/07/26 13:57:49;;;;;;;;;;;43.70;23.60;;;;;;4981142;28;19976;-96
2022/07/26 14:03:00;;;;;;;;;;;44.70;22.90;;;;;;5013991;28;19977;-96
2022/07/26 14:05:27;;;;;;;;;;;44.70;23.50;;;;;;5014457;28;19931;-96
2022/07/26 14:07:54;;;;;;;;;;;44.40;22.70;;;;;;5014233;28;19946;-96
2022/07/26 14:10:21;;;;;;;;;;;44.30;23.00;;;;;;5013886;28;20033;-96
2022/07/26 14:12:48;;;;;;;;;;;43.40;23.80;;;;;;5011952;28;19944;-96
2022/07/26 14:15:14;;;;;;;;;;;42.10;24.60;;;;;;5011091;28;19990;-96
2022/07/26 14:17:40;;;;;;;;;;;41.10;25.20;;;;;;5011653;28;20008;-96
2022/07/26 14:20:06;;;;;;;;;;;41.40;24.80;;;;;;5013198;28;19952;-96
2022/07/26 14:22:32;;;;;;;;;;;41.90;24.50;;;;;;5012634;28;19925;-96
2022/07/26 14:25:09;;;;;;;;;;;41.80;24.60;;;;;;5017869;28;19932;-96
2022/07/26 15:51:15;;;;;;;;;;;39.00;29.60;;;;;;5527700;23;19969;-96